createdAt,value
2019-03-20T00:00:59.872Z,1.10
2019-03-20T00:01:59.794Z,1.40
2019-03-20T00:02:59.722Z,1.20
2019-03-20T00:03:59.632Z,1.40
2019-03-20T00:04:59.560Z,1.60
2019-03-20T00:05:59.496Z,1.80
2019-03-20T00:06:59.423Z,1.80
2019-03-20T00:07:59.338Z,1.90
2019-03-20T00:08:59.265Z,2.00
2019-03-20T00:09:59.188Z,2.10
2019-03-20T00:10:59.115Z,2.40
2019-03-20T00:11:59.053Z,2.00
2019-03-20T00:12:58.974Z,2.20
2019-03-20T00:13:58.895Z,1.90
2019-03-20T00:14:58.819Z,2.00
2019-03-20T00:15:58.755Z,1.70
2019-03-20T00:16:58.684Z,1.60
2019-03-20T00:17:58.608Z,1.70
2019-03-20T00:18:58.537Z,1.40
2019-03-20T00:19:58.447Z,1.60
2019-03-20T00:20:58.379Z,1.60
2019-03-20T00:21:58.308Z,1.60
2019-03-20T00:22:58.235Z,1.60
2019-03-20T00:23:58.157Z,1.30
2019-03-20T00:24:58.076Z,1.30
2019-03-20T00:25:57.999Z,1.40
2019-03-20T00:26:57.930Z,1.30
2019-03-20T00:27:57.863Z,1.30
2019-03-20T00:28:57.788Z,1.30
2019-03-20T00:29:57.718Z,1.20
2019-03-20T00:30:57.645Z,1.10
2019-03-20T00:31:57.569Z,1.40
2019-03-20T00:32:57.484Z,1.50
2019-03-20T00:33:57.409Z,1.30
2019-03-20T00:35:01.113Z,1.20
2019-03-20T00:35:57.269Z,1.50
2019-03-20T00:36:57.195Z,1.30
2019-03-20T00:37:57.113Z,1.40
2019-03-20T00:38:57.040Z,1.40
2019-03-20T00:39:56.983Z,1.50
2019-03-20T00:40:56.904Z,1.40
2019-03-20T00:41:56.828Z,1.40
2019-03-20T00:42:56.753Z,1.60
2019-03-20T00:43:56.667Z,1.90
2019-03-20T00:44:56.597Z,1.70
2019-03-20T00:45:56.524Z,2.00
2019-03-20T00:46:56.444Z,2.00
2019-03-20T00:47:56.379Z,2.30
2019-03-20T00:48:56.306Z,2.60
2019-03-20T00:49:58.063Z,2.30
2019-03-20T00:50:56.162Z,2.80
2019-03-20T00:51:56.071Z,2.30
2019-03-20T00:52:56.001Z,2.50
2019-03-20T00:53:55.936Z,2.00
2019-03-20T00:54:55.862Z,2.10
2019-03-20T00:55:55.778Z,1.80
2019-03-20T00:56:55.702Z,1.70
2019-03-20T00:57:55.642Z,1.60
2019-03-20T00:58:55.556Z,1.60
2019-03-20T00:59:55.494Z,1.40
2019-03-20T01:00:55.418Z,1.40
2019-03-20T01:01:55.344Z,1.30
2019-03-20T01:02:55.272Z,1.30
2019-03-20T01:03:55.189Z,1.30
2019-03-20T01:04:55.112Z,1.30
2019-03-20T01:05:55.038Z,1.30
2019-03-20T01:06:54.963Z,1.30
2019-03-20T01:07:54.899Z,1.10
2019-03-20T01:08:54.821Z,1.20
2019-03-20T01:09:54.737Z,1.20
2019-03-20T01:10:54.665Z,1.10
2019-03-20T01:11:54.602Z,1.30
2019-03-20T01:12:54.529Z,1.30
2019-03-20T01:13:54.458Z,1.20
2019-03-20T01:14:54.380Z,1.30
2019-03-20T01:15:54.296Z,1.30
2019-03-20T01:16:54.218Z,1.40
2019-03-20T01:17:54.152Z,1.40
2019-03-20T01:18:54.080Z,1.40
2019-03-20T01:19:53.997Z,1.50
2019-03-20T01:20:53.926Z,1.50
2019-03-20T01:21:53.847Z,1.70
2019-03-20T01:22:53.793Z,1.60
2019-03-20T01:23:53.711Z,1.80
2019-03-20T01:24:53.637Z,2.00
2019-03-20T01:25:53.553Z,2.30
2019-03-20T01:26:53.477Z,2.30
2019-03-20T01:27:53.409Z,2.30
2019-03-20T01:28:53.334Z,2.20
2019-03-20T01:29:53.258Z,2.20
2019-03-20T01:30:53.190Z,2.10
2019-03-20T01:31:53.099Z,2.10
2019-03-20T01:32:53.024Z,1.80
2019-03-20T01:33:54.871Z,2.00
2019-03-20T01:34:52.881Z,1.90
2019-03-20T01:35:52.812Z,2.00
2019-03-20T01:36:52.740Z,1.90
2019-03-20T01:37:52.663Z,1.40
2019-03-20T01:38:52.592Z,1.30
2019-03-20T01:39:52.502Z,1.40
2019-03-20T01:40:52.446Z,1.60
2019-03-20T01:41:52.364Z,1.70
2019-03-20T01:42:52.290Z,1.20
2019-03-20T01:43:52.208Z,1.60
2019-03-20T01:44:52.132Z,1.20
2019-03-20T01:45:52.058Z,1.40
2019-03-20T01:46:51.991Z,1.40
2019-03-20T01:47:51.920Z,1.30
2019-03-20T01:48:51.889Z,1.20
2019-03-20T01:49:51.760Z,1.20
2019-03-20T01:50:51.683Z,1.30
2019-03-20T01:51:51.619Z,1.30
2019-03-20T01:52:51.548Z,1.20
2019-03-20T01:53:51.474Z,1.10
2019-03-20T01:54:51.398Z,1.30
2019-03-20T01:55:51.311Z,1.10
2019-03-20T01:56:51.246Z,1.30
2019-03-20T01:57:51.171Z,1.20
2019-03-20T01:58:51.102Z,1.30
2019-03-20T01:59:51.013Z,1.50
2019-03-20T02:00:50.936Z,1.30
2019-03-20T02:01:50.862Z,1.40
2019-03-20T02:02:50.795Z,1.20
2019-03-20T02:03:50.726Z,1.30
2019-03-20T02:04:50.654Z,1.30
2019-03-20T02:05:50.574Z,1.30
2019-03-20T02:06:50.500Z,1.30
2019-03-20T02:07:50.442Z,1.50
2019-03-20T02:08:50.344Z,1.50
2019-03-20T02:09:50.270Z,1.20
2019-03-20T02:10:50.193Z,1.20
2019-03-20T02:11:50.132Z,1.10
2019-03-20T02:12:50.058Z,1.10
2019-03-20T02:13:49.972Z,1.20
2019-03-20T02:14:49.892Z,1.10
2019-03-20T02:15:49.832Z,1.20
2019-03-20T02:16:49.756Z,1.10
2019-03-20T02:17:49.683Z,1.30
2019-03-20T02:18:49.606Z,1.10
2019-03-20T02:19:49.521Z,1.20
2019-03-20T02:20:49.447Z,1.20
2019-03-20T02:21:49.386Z,1.30
2019-03-20T02:22:49.307Z,1.10
2019-03-20T02:23:49.235Z,1.20
2019-03-20T02:24:49.146Z,1.30
2019-03-20T02:25:49.075Z,1.20
2019-03-20T02:26:49.003Z,1.00
2019-03-20T02:27:48.943Z,1.40
2019-03-20T02:28:48.860Z,1.10
2019-03-20T02:29:48.780Z,1.20
2019-03-20T02:30:48.703Z,1.20
2019-03-20T02:31:48.645Z,1.10
2019-03-20T02:32:48.575Z,1.10
2019-03-20T02:33:48.490Z,1.20
2019-03-20T02:34:48.428Z,1.30
2019-03-20T02:35:51.876Z,1.10
2019-03-20T02:36:48.267Z,1.10
2019-03-20T02:37:48.199Z,1.10
2019-03-20T02:38:48.113Z,1.20
2019-03-20T02:39:48.051Z,1.20
2019-03-20T02:40:47.992Z,1.00
2019-03-20T02:41:47.899Z,1.10
2019-03-20T02:42:47.828Z,1.10
2019-03-20T02:43:47.740Z,1.10
2019-03-20T02:44:47.667Z,1.10
2019-03-20T02:45:47.599Z,1.10
2019-03-20T02:46:47.526Z,1.00
2019-03-20T02:47:47.459Z,1.10
2019-03-20T02:48:47.367Z,1.00
2019-03-20T02:49:47.292Z,1.20
2019-03-20T02:50:47.234Z,1.20
2019-03-20T02:51:47.159Z,1.20
2019-03-20T02:52:47.084Z,1.20
2019-03-20T02:53:47.006Z,1.20
2019-03-20T02:54:46.933Z,1.10
2019-03-20T02:55:46.848Z,1.10
2019-03-20T02:56:46.779Z,1.10
2019-03-20T02:57:46.702Z,1.30
2019-03-20T02:58:46.626Z,1.20
2019-03-20T02:59:46.568Z,1.10
2019-03-20T03:00:46.489Z,1.00
2019-03-20T03:01:46.408Z,1.10
2019-03-20T03:02:46.330Z,1.20
2019-03-20T03:03:46.267Z,1.10
2019-03-20T03:04:46.190Z,1.00
2019-03-20T03:05:46.120Z,1.10
2019-03-20T03:06:46.033Z,1.20
2019-03-20T03:07:45.973Z,1.10
2019-03-20T03:08:45.889Z,1.20
2019-03-20T03:09:45.813Z,1.10
2019-03-20T03:10:45.749Z,1.10
2019-03-20T03:11:45.674Z,1.10
2019-03-20T03:12:45.602Z,1.00
2019-03-20T03:13:45.536Z,1.20
2019-03-20T03:14:45.442Z,1.20
2019-03-20T03:15:45.375Z,1.20
2019-03-20T03:16:45.297Z,1.20
2019-03-20T03:17:45.226Z,1.30
2019-03-20T03:18:45.141Z,1.20
2019-03-20T03:19:45.105Z,1.00
2019-03-20T03:20:44.992Z,1.10
2019-03-20T03:21:44.920Z,1.10
2019-03-20T03:22:44.997Z,0.90
2019-03-20T03:23:44.787Z,1.00
2019-03-20T03:24:44.693Z,1.20
2019-03-20T03:25:44.625Z,1.10
2019-03-20T03:26:44.551Z,1.00
2019-03-20T03:27:44.481Z,1.20
2019-03-20T03:28:44.409Z,1.00
2019-03-20T03:29:44.334Z,1.20
2019-03-20T03:30:44.246Z,0.90
2019-03-20T03:31:44.169Z,0.80
2019-03-20T03:32:44.110Z,0.90
2019-03-20T03:33:44.041Z,1.10
2019-03-20T03:34:43.951Z,1.00
2019-03-20T03:35:43.880Z,0.90
2019-03-20T03:36:43.796Z,1.10
2019-03-20T03:37:43.732Z,1.00
2019-03-20T03:38:43.710Z,1.10
2019-03-20T03:39:43.590Z,0.90
2019-03-20T03:40:43.514Z,1.00
2019-03-20T03:41:43.440Z,1.20
2019-03-20T03:42:43.354Z,1.00
2019-03-20T03:43:43.290Z,1.10
2019-03-20T03:44:43.200Z,0.90
2019-03-20T03:45:43.168Z,1.30
2019-03-20T03:46:43.066Z,1.00
2019-03-20T03:47:42.990Z,1.00
2019-03-20T03:48:42.914Z,0.90
2019-03-20T03:49:42.840Z,1.00
2019-03-20T03:50:42.772Z,1.00
2019-03-20T03:51:42.695Z,1.10
2019-03-20T03:52:42.643Z,1.00
2019-03-20T03:53:42.565Z,1.00
2019-03-20T03:54:42.456Z,1.10
2019-03-20T03:55:42.475Z,1.10
2019-03-20T03:56:42.303Z,0.90
2019-03-20T03:57:42.237Z,0.90
2019-03-20T03:58:42.167Z,1.00
2019-03-20T03:59:42.099Z,1.00
2019-03-20T04:00:42.017Z,1.00
2019-03-20T04:01:41.945Z,1.10
2019-03-20T04:02:41.861Z,1.00
2019-03-20T04:03:41.784Z,0.80
2019-03-20T04:04:41.719Z,0.90
2019-03-20T04:05:41.649Z,1.00
2019-03-20T04:06:41.568Z,1.10
2019-03-20T04:07:41.486Z,1.20
2019-03-20T04:08:41.413Z,1.00
2019-03-20T04:09:41.337Z,1.10
2019-03-20T04:10:41.272Z,1.20
2019-03-20T04:11:41.200Z,1.30
2019-03-20T04:12:41.123Z,1.70
2019-03-20T04:13:41.050Z,1.20
2019-03-20T04:14:40.958Z,2.50
2019-03-20T04:15:40.908Z,1.30
2019-03-20T04:16:40.830Z,1.20
2019-03-20T04:17:40.741Z,1.20
2019-03-20T04:18:40.683Z,1.10
2019-03-20T04:19:40.597Z,1.20
2019-03-20T04:20:40.514Z,1.00
2019-03-20T04:21:40.441Z,1.20
2019-03-20T04:22:40.379Z,0.90
2019-03-20T04:23:40.304Z,1.00
2019-03-20T04:24:40.223Z,0.90
2019-03-20T04:25:40.184Z,0.90
2019-03-20T04:26:40.070Z,1.10
2019-03-20T04:27:40.000Z,0.90
2019-03-20T04:28:39.925Z,1.20
2019-03-20T04:29:39.853Z,1.00
2019-03-20T04:30:39.769Z,1.10
2019-03-20T04:31:39.700Z,1.00
2019-03-20T04:32:39.612Z,1.00
2019-03-20T04:33:39.586Z,0.90
2019-03-20T04:34:39.479Z,1.10
2019-03-20T04:35:39.401Z,1.10
2019-03-20T04:36:47.663Z,1.10
2019-03-20T04:37:39.245Z,1.10
2019-03-20T04:38:39.176Z,1.00
2019-03-20T04:39:39.100Z,1.10
2019-03-20T04:40:39.025Z,1.10
2019-03-20T04:41:38.952Z,1.00
2019-03-20T04:42:38.868Z,0.90
2019-03-20T04:43:38.793Z,1.00
2019-03-20T04:44:38.718Z,1.30
2019-03-20T04:45:38.648Z,0.90
2019-03-20T04:46:38.578Z,1.00
2019-03-20T04:47:38.503Z,1.00
2019-03-20T04:48:38.430Z,1.10
2019-03-20T04:49:38.351Z,0.90
2019-03-20T04:50:38.274Z,1.20
2019-03-20T04:51:38.192Z,1.10
2019-03-20T04:52:38.127Z,0.90
2019-03-20T04:53:38.056Z,1.10
2019-03-20T04:54:37.972Z,1.00
2019-03-20T04:55:37.896Z,1.20
2019-03-20T04:56:37.818Z,0.90
2019-03-20T04:57:37.745Z,0.90
2019-03-20T04:58:37.683Z,1.10
2019-03-20T04:59:37.602Z,1.10
2019-03-20T05:00:37.528Z,1.10
2019-03-20T05:01:37.461Z,1.10
2019-03-20T05:02:37.372Z,1.10
2019-03-20T05:03:37.300Z,1.00
2019-03-20T05:04:37.226Z,1.10
2019-03-20T05:05:37.144Z,1.00
2019-03-20T05:06:37.090Z,1.10
2019-03-20T05:07:37.015Z,1.10
2019-03-20T05:08:36.920Z,1.00
2019-03-20T05:09:36.849Z,1.00
2019-03-20T05:10:36.783Z,1.20
2019-03-20T05:11:36.709Z,1.10
2019-03-20T05:12:36.634Z,1.00
2019-03-20T05:13:36.559Z,1.00
2019-03-20T05:14:36.474Z,1.10
2019-03-20T05:15:36.403Z,1.10
2019-03-20T05:16:36.322Z,1.00
2019-03-20T05:17:36.254Z,1.00
2019-03-20T05:18:36.181Z,1.20
2019-03-20T05:19:36.109Z,1.20
2019-03-20T05:20:36.039Z,1.20
2019-03-20T05:21:35.956Z,1.10
2019-03-20T05:22:35.874Z,1.00
2019-03-20T05:23:35.800Z,1.10
2019-03-20T05:24:35.734Z,1.20
2019-03-20T05:25:35.663Z,1.10
2019-03-20T05:26:35.589Z,1.20
2019-03-20T05:27:35.510Z,1.50
2019-03-20T05:28:35.445Z,1.40
2019-03-20T05:29:35.353Z,1.30
2019-03-20T05:30:35.290Z,1.20
2019-03-20T05:31:35.211Z,1.10
2019-03-20T05:32:35.130Z,1.10
2019-03-20T05:33:35.057Z,1.20
2019-03-20T05:34:34.994Z,1.10
2019-03-20T05:35:34.914Z,1.30
2019-03-20T05:36:34.846Z,1.10
2019-03-20T05:37:34.770Z,1.40
2019-03-20T05:38:34.684Z,1.30
2019-03-20T05:39:34.607Z,1.10
2019-03-20T05:40:34.545Z,1.10
2019-03-20T05:41:34.466Z,1.20
2019-03-20T05:42:34.381Z,1.30
2019-03-20T05:43:34.312Z,1.30
2019-03-20T05:44:34.232Z,1.20
2019-03-20T05:45:34.159Z,1.10
2019-03-20T05:46:34.093Z,1.30
2019-03-20T05:47:34.018Z,1.30
2019-03-20T05:48:33.937Z,1.40
2019-03-20T05:49:33.870Z,1.30
2019-03-20T05:50:33.784Z,1.20
2019-03-20T05:51:33.718Z,1.30
2019-03-20T05:52:33.657Z,1.20
2019-03-20T05:53:33.557Z,1.40
2019-03-20T05:54:33.494Z,1.40
2019-03-20T05:55:33.419Z,1.10
2019-03-20T05:56:33.336Z,1.40
2019-03-20T05:57:33.264Z,1.20
2019-03-20T05:58:33.211Z,1.20
2019-03-20T05:59:33.119Z,3.50
2019-03-20T06:00:33.044Z,2.50
2019-03-20T06:01:32.970Z,2.00
2019-03-20T06:02:32.878Z,1.70
2019-03-20T06:03:32.812Z,1.40
2019-03-20T06:04:32.784Z,1.20
2019-03-20T06:05:32.669Z,1.20
2019-03-20T06:06:32.587Z,1.40
2019-03-20T06:07:32.508Z,1.30
2019-03-20T06:08:32.428Z,1.50
2019-03-20T06:09:32.364Z,1.30
2019-03-20T06:10:32.293Z,1.40
2019-03-20T06:11:32.221Z,1.20
2019-03-20T06:12:32.133Z,1.20
2019-03-20T06:13:32.060Z,1.20
2019-03-20T06:14:31.999Z,1.30
2019-03-20T06:15:31.924Z,1.20
2019-03-20T06:16:31.849Z,1.30
2019-03-20T06:17:31.768Z,1.40
2019-03-20T06:18:31.685Z,1.30
2019-03-20T06:19:31.610Z,1.20
2019-03-20T06:20:33.744Z,1.50
2019-03-20T06:21:31.461Z,1.40
2019-03-20T06:22:31.393Z,1.40
2019-03-20T06:23:31.324Z,1.50
2019-03-20T06:24:31.246Z,1.40
2019-03-20T06:25:31.175Z,1.40
2019-03-20T06:26:31.088Z,1.30
2019-03-20T06:27:31.011Z,1.30
2019-03-20T06:28:30.948Z,1.70
2019-03-20T06:29:30.878Z,1.40
2019-03-20T06:30:30.784Z,1.20
2019-03-20T06:31:30.716Z,1.50
2019-03-20T06:32:30.642Z,1.50
2019-03-20T06:33:30.566Z,1.60
2019-03-20T06:34:30.501Z,1.40
2019-03-20T06:35:30.425Z,1.70
2019-03-20T06:36:30.344Z,1.80
2019-03-20T06:37:32.722Z,2.10
2019-03-20T06:38:30.230Z,2.10
2019-03-20T06:39:30.129Z,2.10
2019-03-20T06:40:30.058Z,2.20
2019-03-20T06:41:29.983Z,2.40
2019-03-20T06:42:29.892Z,2.80
2019-03-20T06:43:29.818Z,2.50
2019-03-20T06:44:29.762Z,2.30
2019-03-20T06:45:29.693Z,2.60
2019-03-20T06:46:29.600Z,2.30
2019-03-20T06:47:29.528Z,2.50
2019-03-20T06:48:29.478Z,2.60
2019-03-20T06:49:29.375Z,2.30
2019-03-20T06:50:29.316Z,2.30
2019-03-20T06:51:29.243Z,2.20
2019-03-20T06:52:29.174Z,2.10
2019-03-20T06:53:29.098Z,2.20
2019-03-20T06:54:29.004Z,2.00
2019-03-20T06:55:28.930Z,1.80
2019-03-20T06:56:28.860Z,1.90
2019-03-20T06:57:28.786Z,1.90
2019-03-20T06:58:28.722Z,1.90
2019-03-20T06:59:28.650Z,1.90
2019-03-20T07:00:28.588Z,1.80
2019-03-20T07:01:28.493Z,2.00
2019-03-20T07:02:28.436Z,2.00
2019-03-20T07:03:28.356Z,1.70
2019-03-20T07:04:28.286Z,2.00
2019-03-20T07:05:28.234Z,1.90
2019-03-20T07:06:28.154Z,1.80
2019-03-20T07:07:28.052Z,1.80
2019-03-20T07:08:27.974Z,1.90
2019-03-20T07:09:27.906Z,1.80
2019-03-20T07:10:27.845Z,1.70
2019-03-20T07:11:27.770Z,1.90
2019-03-20T07:12:27.694Z,2.20
2019-03-20T07:13:27.622Z,1.80
2019-03-20T07:14:27.536Z,1.80
2019-03-20T07:15:27.466Z,2.00
2019-03-20T07:16:27.412Z,1.70
2019-03-20T07:17:27.329Z,1.80
2019-03-20T07:18:27.245Z,1.70
2019-03-20T07:19:27.173Z,1.80
2019-03-20T07:20:27.100Z,2.10
2019-03-20T07:21:27.031Z,1.90
2019-03-20T07:22:27.011Z,2.00
2019-03-20T07:23:26.949Z,2.00
2019-03-20T07:24:26.821Z,1.90
2019-03-20T07:25:26.743Z,2.10
2019-03-20T07:26:28.612Z,2.50
2019-03-20T07:27:26.588Z,1.90
2019-03-20T07:28:26.516Z,2.40
2019-03-20T07:29:26.440Z,2.00
2019-03-20T07:30:26.387Z,1.90
2019-03-20T07:31:26.308Z,2.20
2019-03-20T07:32:26.228Z,2.40
2019-03-20T07:33:26.154Z,2.20
2019-03-20T07:34:26.098Z,2.10
2019-03-20T07:35:26.025Z,2.00
2019-03-20T07:36:25.950Z,2.00
2019-03-20T07:37:25.870Z,2.20
2019-03-20T07:38:25.791Z,2.20
2019-03-20T07:39:25.719Z,2.30
2019-03-20T07:40:25.658Z,2.20
2019-03-20T07:41:25.584Z,2.40
2019-03-20T07:42:25.501Z,2.40
2019-03-20T07:43:27.010Z,2.70
2019-03-20T07:44:25.354Z,3.00
2019-03-20T07:45:25.283Z,3.10
2019-03-20T07:46:25.223Z,3.10
2019-03-20T07:47:25.154Z,3.10
2019-03-20T07:48:25.078Z,2.80
2019-03-20T07:49:24.990Z,3.40
2019-03-20T07:50:24.933Z,2.70
2019-03-20T07:51:24.861Z,2.90
2019-03-20T07:52:24.791Z,3.20
2019-03-20T07:53:24.717Z,3.10
2019-03-20T07:54:24.631Z,2.80
2019-03-20T07:55:24.559Z,3.00
2019-03-20T07:56:24.530Z,3.30
2019-03-20T07:57:24.417Z,2.90
2019-03-20T07:58:24.354Z,4.00
2019-03-20T07:59:24.286Z,3.70
2019-03-20T08:00:24.205Z,3.90
2019-03-20T08:01:24.144Z,3.50
2019-03-20T08:02:24.058Z,3.70
2019-03-20T08:03:23.978Z,3.90
2019-03-20T08:04:23.925Z,3.70
2019-03-20T08:05:29.266Z,3.30
2019-03-20T08:06:23.775Z,3.90
2019-03-20T08:07:23.692Z,3.40
2019-03-20T08:08:23.624Z,3.00
2019-03-20T08:09:25.640Z,2.80
2019-03-20T08:10:23.496Z,2.80
2019-03-20T08:11:23.421Z,2.80
2019-03-20T08:12:23.349Z,3.00
2019-03-20T08:13:23.293Z,2.90
2019-03-20T08:14:23.192Z,2.90
2019-03-20T08:15:23.118Z,2.70
2019-03-20T08:16:23.046Z,3.00
2019-03-20T08:17:22.978Z,2.70
2019-03-20T08:18:22.919Z,2.90
2019-03-20T08:19:22.847Z,2.30
2019-03-20T08:20:22.773Z,3.00
2019-03-20T08:21:22.746Z,2.70
2019-03-20T08:22:22.631Z,2.60
2019-03-20T08:23:22.567Z,2.60
2019-03-20T08:24:22.490Z,2.60
2019-03-20T08:25:22.419Z,2.30
2019-03-20T08:26:22.336Z,2.50
2019-03-20T08:27:22.276Z,2.50
2019-03-20T08:28:22.188Z,2.70
2019-03-20T08:29:22.119Z,2.30
2019-03-20T08:30:22.095Z,2.50
2019-03-20T08:31:21.994Z,2.50
2019-03-20T08:32:21.916Z,2.50
2019-03-20T08:33:21.863Z,2.70
2019-03-20T08:34:21.763Z,2.60
2019-03-20T08:35:21.692Z,2.90
2019-03-20T08:36:21.638Z,2.40
2019-03-20T08:37:21.566Z,2.60
2019-03-20T08:38:21.478Z,2.60
2019-03-20T08:39:21.444Z,2.50
2019-03-20T08:40:22.120Z,2.30
2019-03-20T08:41:21.280Z,2.70
2019-03-20T08:42:21.242Z,2.40
2019-03-20T08:43:21.139Z,2.70
2019-03-20T08:45:55.140Z,2.60
2019-03-20T08:48:10.555Z,2.40
2019-03-20T08:49:10.446Z,2.50
2019-03-20T08:51:05.710Z,2.40
2019-03-20T08:52:05.616Z,2.40
2019-03-20T08:54:00.891Z,2.50
2019-03-20T08:55:00.776Z,2.30
2019-03-20T08:56:56.039Z,2.90
2019-03-20T08:57:55.950Z,3.20
2019-03-20T08:59:51.213Z,2.80
2019-03-20T09:00:51.107Z,2.90
2019-03-20T09:02:46.397Z,3.00
2019-03-20T09:03:46.298Z,3.10
2019-03-20T09:05:41.587Z,2.70
2019-03-20T09:06:41.486Z,2.80
2019-03-20T09:08:36.785Z,2.90
2019-03-20T09:09:36.674Z,2.80
2019-03-20T09:11:31.953Z,2.70
2019-03-20T09:12:31.853Z,2.70
2019-03-20T09:14:27.123Z,2.90
2019-03-20T09:15:27.029Z,3.20
2019-03-20T09:17:22.297Z,2.80
2019-03-20T09:18:22.211Z,2.40
2019-03-20T09:20:17.495Z,2.90
2019-03-20T09:21:17.399Z,2.60
2019-03-20T09:23:12.665Z,2.50
2019-03-20T09:24:12.569Z,3.10
2019-03-20T09:26:07.838Z,2.90
2019-03-20T09:27:07.746Z,3.10
2019-03-20T09:29:03.850Z,3.10
2019-03-20T09:30:03.756Z,3.40
2019-03-20T09:31:59.029Z,3.10
2019-03-20T09:32:58.936Z,3.20
2019-03-20T09:34:54.247Z,3.00
2019-03-20T09:35:54.157Z,2.90
2019-03-20T09:37:52.056Z,3.00
2019-03-20T09:38:49.398Z,3.20
2019-03-20T09:40:44.658Z,3.40
2019-03-20T09:41:44.558Z,2.90
2019-03-20T09:43:39.844Z,2.90
2019-03-20T09:44:39.751Z,2.70
2019-03-20T09:46:35.018Z,2.60
2019-03-20T09:47:34.923Z,2.70
2019-03-20T09:49:31.714Z,2.80
2019-03-20T09:50:31.617Z,3.00
2019-03-20T09:52:26.881Z,3.00
2019-03-20T09:53:26.796Z,2.80
2019-03-20T09:55:22.059Z,3.00
2019-03-20T09:56:21.964Z,3.20
2019-03-20T09:58:17.240Z,3.20
2019-03-20T09:59:17.147Z,3.30
2019-03-20T10:01:12.467Z,3.50
2019-03-20T10:02:12.328Z,3.00
2019-03-20T10:04:07.597Z,2.90
2019-03-20T10:05:07.509Z,2.70
2019-03-20T10:07:02.798Z,3.20
2019-03-20T10:08:02.693Z,3.00
2019-03-20T10:09:57.968Z,2.70
2019-03-20T10:10:57.871Z,2.70
2019-03-20T10:12:53.154Z,2.60
2019-03-20T10:13:53.053Z,2.80
2019-03-20T10:15:48.319Z,3.00
2019-03-20T10:16:48.236Z,2.30
2019-03-20T10:18:43.519Z,3.00
2019-03-20T10:19:43.427Z,2.70
2019-03-20T10:21:38.692Z,2.70
2019-03-20T10:22:39.077Z,2.90
2019-03-20T10:24:33.898Z,2.80
2019-03-20T10:25:43.871Z,3.10
2019-03-20T10:27:29.078Z,3.30
2019-03-20T10:28:28.987Z,3.30
2019-03-20T10:30:24.254Z,3.00
2019-03-20T10:31:24.172Z,3.20
2019-03-20T10:33:19.448Z,3.20
2019-03-20T10:34:19.352Z,2.90
2019-03-20T10:36:14.620Z,2.80
2019-03-20T10:37:14.545Z,3.00
2019-03-20T10:39:09.842Z,2.90
2019-03-20T10:40:09.732Z,3.10
2019-03-20T10:42:04.989Z,2.90
2019-03-20T10:43:04.895Z,2.80
2019-03-20T10:45:01.001Z,3.00
2019-03-20T10:46:00.914Z,2.90
2019-03-20T10:47:56.197Z,2.90
2019-03-20T10:48:56.404Z,2.60
2019-03-20T10:50:51.363Z,2.50
2019-03-20T10:51:51.286Z,2.60
2019-03-20T10:53:46.550Z,2.90
2019-03-20T10:54:46.454Z,4.30
2019-03-20T10:56:41.747Z,2.60
2019-03-20T10:57:41.652Z,2.40
2019-03-20T10:59:36.925Z,2.50
2019-03-20T11:00:36.840Z,2.60
2019-03-20T11:02:32.119Z,3.30
2019-03-20T11:03:32.080Z,2.60
2019-03-20T11:05:27.293Z,2.40
2019-03-20T11:06:27.208Z,2.60
2019-03-20T11:08:22.495Z,2.40
2019-03-20T11:09:22.391Z,2.50
2019-03-20T11:11:26.657Z,2.20
2019-03-20T11:12:17.573Z,2.40
2019-03-20T11:14:12.857Z,2.60
2019-03-20T11:15:12.764Z,2.40
2019-03-20T11:17:08.031Z,2.30
2019-03-20T11:18:07.947Z,2.30
2019-03-20T11:20:03.216Z,2.30
2019-03-20T11:21:03.126Z,2.30
2019-03-20T11:22:58.410Z,2.10
2019-03-20T11:23:58.305Z,2.20
2019-03-20T11:25:53.579Z,2.30
2019-03-20T11:26:53.486Z,2.30
2019-03-20T11:28:48.747Z,2.10
2019-03-20T11:29:48.663Z,2.20
2019-03-20T11:31:43.964Z,2.10
2019-03-20T11:32:43.869Z,2.30
2019-03-20T11:34:39.146Z,2.00
2019-03-20T11:35:39.068Z,2.30
2019-03-20T11:37:34.360Z,2.30
2019-03-20T11:38:34.262Z,1.90
2019-03-20T11:40:29.536Z,2.20
2019-03-20T11:41:29.441Z,2.10
2019-03-20T11:43:24.722Z,2.10
2019-03-20T11:44:24.619Z,2.20
2019-03-20T11:46:19.895Z,1.80
2019-03-20T11:47:19.817Z,1.90
2019-03-20T11:49:15.090Z,1.60
2019-03-20T11:50:14.993Z,1.50
2019-03-20T11:52:10.312Z,1.80
2019-03-20T11:53:10.191Z,2.00
2019-03-20T11:55:05.470Z,1.60
2019-03-20T11:56:05.373Z,1.80
2019-03-20T11:58:00.656Z,1.90
2019-03-20T11:59:00.583Z,2.00
2019-03-20T12:00:55.831Z,2.00
2019-03-20T12:01:55.738Z,1.90
2019-03-20T12:03:50.997Z,1.80
2019-03-20T12:04:50.918Z,1.80
2019-03-20T12:06:46.198Z,1.90
2019-03-20T12:07:46.104Z,1.70
2019-03-20T12:09:41.519Z,2.10
2019-03-20T12:10:41.275Z,2.00
2019-03-20T12:12:36.543Z,2.10
2019-03-20T12:13:36.468Z,1.80
2019-03-20T12:15:32.573Z,1.40
2019-03-20T12:16:32.471Z,1.50
2019-03-20T12:18:27.735Z,1.70
2019-03-20T12:19:27.645Z,1.40
2019-03-20T12:21:22.942Z,1.40
2019-03-20T12:22:22.848Z,1.50
2019-03-20T12:24:18.122Z,1.90
2019-03-20T12:25:18.047Z,1.90
2019-03-20T12:27:15.329Z,1.80
2019-03-20T12:28:13.210Z,1.70
2019-03-20T12:30:08.515Z,1.60
2019-03-20T12:31:08.399Z,1.60
2019-03-20T12:33:03.671Z,1.60
2019-03-20T12:34:03.632Z,1.60
2019-03-20T12:35:58.882Z,1.60
2019-03-20T12:36:58.777Z,1.60
2019-03-20T12:38:54.054Z,2.90
2019-03-20T12:39:53.958Z,2.20
2019-03-20T12:41:50.066Z,2.00
2019-03-20T12:42:49.962Z,1.60
2019-03-20T12:44:45.250Z,1.90
2019-03-20T12:45:45.142Z,1.80
2019-03-20T12:47:40.431Z,1.30
2019-03-20T12:48:40.337Z,1.50
2019-03-20T12:50:35.615Z,2.50
2019-03-20T12:51:35.538Z,2.60
2019-03-20T12:53:30.802Z,2.40
2019-03-20T12:54:30.728Z,1.80
2019-03-20T12:56:26.008Z,1.80
2019-03-20T12:57:25.918Z,1.90
2019-03-20T12:59:21.181Z,1.70
2019-03-20T13:00:21.106Z,1.80
2019-03-20T13:02:16.399Z,1.50
2019-03-20T13:03:16.299Z,2.00
2019-03-20T13:05:11.559Z,1.70
2019-03-20T13:06:11.486Z,1.70
2019-03-20T13:08:06.789Z,1.70
2019-03-20T13:09:06.660Z,1.80
2019-03-20T13:11:01.952Z,1.50
2019-03-20T13:12:01.852Z,1.70
2019-03-20T13:13:57.130Z,1.50
2019-03-20T13:14:57.046Z,1.40
2019-03-20T13:16:52.343Z,1.70
2019-03-20T13:17:52.234Z,1.70
2019-03-20T13:19:47.521Z,1.60
2019-03-20T13:20:47.442Z,1.60
2019-03-20T13:22:42.711Z,1.60
2019-03-20T13:23:42.607Z,1.70
2019-03-20T13:25:37.885Z,1.40
2019-03-20T13:26:37.797Z,1.40
2019-03-20T13:28:33.083Z,1.70
2019-03-20T13:29:32.992Z,1.40
2019-03-20T13:31:28.263Z,2.00
2019-03-20T13:32:28.174Z,1.30
2019-03-20T13:34:23.477Z,1.80
2019-03-20T13:35:23.376Z,1.70
2019-03-20T13:37:19.453Z,2.30
2019-03-20T13:38:19.355Z,1.90
2019-03-20T13:40:14.930Z,1.30
2019-03-20T13:41:14.533Z,1.30
2019-03-20T13:43:10.721Z,1.60
2019-03-20T13:44:10.632Z,1.60
2019-03-20T13:46:05.897Z,1.70
2019-03-20T13:47:08.113Z,1.70
2019-03-20T13:49:01.070Z,1.50
2019-03-20T13:50:00.992Z,1.90
2019-03-20T13:51:56.262Z,2.10
2019-03-20T13:52:56.172Z,2.00
2019-03-20T13:54:51.437Z,1.60
2019-03-20T13:55:51.352Z,1.50
2019-03-20T13:57:46.624Z,1.50
2019-03-20T13:58:46.538Z,1.40
2019-03-20T14:00:41.795Z,1.40
2019-03-20T14:01:41.711Z,1.30
2019-03-20T14:03:37.003Z,1.40
2019-03-20T14:04:36.909Z,1.40
2019-03-20T14:06:33.092Z,1.70
2019-03-20T14:07:33.002Z,1.50
2019-03-20T14:09:28.287Z,1.40
2019-03-20T14:10:28.185Z,1.60
2019-03-20T14:12:23.460Z,1.60
2019-03-20T14:13:23.359Z,1.60
2019-03-20T14:15:18.650Z,1.70
2019-03-20T14:16:18.569Z,1.60
2019-03-20T14:18:13.835Z,1.70
2019-03-20T14:19:13.747Z,1.20
2019-03-20T14:21:09.009Z,1.30
2019-03-20T14:22:08.934Z,2.00
2019-03-20T14:24:04.190Z,1.80
2019-03-20T14:25:04.116Z,2.10
2019-03-20T14:26:59.398Z,1.80
2019-03-20T14:27:59.294Z,1.50
2019-03-20T14:29:54.569Z,1.70
2019-03-20T14:30:54.467Z,1.80
2019-03-20T14:32:49.739Z,1.40
2019-03-20T14:33:49.660Z,1.30
2019-03-20T14:35:44.918Z,1.50
2019-03-20T14:36:44.835Z,1.90
2019-03-20T14:38:40.112Z,1.50
2019-03-20T14:39:40.029Z,1.30
2019-03-20T14:41:36.125Z,1.70
2019-03-20T14:42:36.024Z,1.90
2019-03-20T14:44:31.299Z,1.60
2019-03-20T14:45:31.213Z,1.40
2019-03-20T14:47:27.974Z,1.60
2019-03-20T14:48:27.882Z,1.40
2019-03-20T14:50:23.150Z,2.20
2019-03-20T14:51:23.067Z,2.10
2019-03-20T14:53:18.346Z,1.80
2019-03-20T14:54:18.253Z,2.30
2019-03-20T14:56:13.531Z,1.90
2019-03-20T14:57:13.433Z,1.60
2019-03-20T14:59:08.722Z,1.90
2019-03-20T15:00:08.621Z,1.50
2019-03-20T15:02:03.897Z,1.70
2019-03-20T15:03:03.807Z,2.60
2019-03-20T15:04:59.101Z,2.20
2019-03-20T15:05:58.986Z,2.20
2019-03-20T15:07:54.242Z,2.40
2019-03-20T15:08:54.158Z,1.60
2019-03-20T15:10:49.442Z,2.00
2019-03-20T15:11:49.350Z,1.50
2019-03-20T15:13:44.624Z,2.10
2019-03-20T15:14:44.543Z,1.90
2019-03-20T15:16:39.818Z,1.80
2019-03-20T15:17:39.738Z,1.40
2019-03-20T15:19:34.998Z,1.70
2019-03-20T15:20:34.926Z,1.40
2019-03-20T15:22:30.186Z,1.70
2019-03-20T15:23:30.106Z,1.60
2019-03-20T15:25:25.379Z,1.70
2019-03-20T15:26:25.299Z,1.50